Time;durP1;ratioP1;P1;durP2;ratioP2;P2;SDS_P1;SDS_P2;PMS_P1;PMS_P2;Temp;Humidity;BMP_temperature;BMP_pressure;BME280_temperature;BME280_humidity;BME280_pressure;Samples;Min_cycle;Max_cycle;Signal;HPM_P1;HPM_P2
2023/08/07 00:01:31;;;;;;;10.80;2.53;;;15.40;75.30;;;;;;5005482;28;20053;-63
2023/08/07 00:03:58;;;;;;;13.85;2.75;;;15.40;75.20;;;;;;5005621;28;20053;-54
2023/08/07 00:06:25;;;;;;;15.68;3.33;;;15.40;75.30;;;;;;5005182;28;20050;-63
2023/08/07 00:08:52;;;;;;;15.02;3.08;;;15.50;75.10;;;;;;5006927;28;20417;-62
2023/08/07 00:11:20;;;;;;;12.02;2.72;;;15.50;74.70;;;;;;5004886;28;20050;-62
2023/08/07 00:13:48;;;;;;;20.45;3.10;;;15.50;74.80;;;;;;5005204;28;20057;-61
2023/08/07 00:16:16;;;;;;;16.88;3.60;;;15.50;74.20;;;;;;5005466;28;20513;-59
2023/08/07 00:18:43;;;;;;;16.95;2.90;;;15.50;74.10;;;;;;5005128;28;20053;-62
2023/08/07 00:21:10;;;;;;;16.92;3.15;;;15.50;74.10;;;;;;5005054;28;20072;-51
2023/08/07 00:23:37;;;;;;;17.02;3.40;;;15.50;74.10;;;;;;5005530;28;20057;-49
2023/08/07 00:26:04;;;;;;;12.63;2.92;;;15.50;74.20;;;;;;5004775;28;20057;-59
2023/08/07 00:28:32;;;;;;;17.45;3.55;;;15.60;74.10;;;;;;5004672;28;20053;-47
2023/08/07 00:31:00;;;;;;;13.63;2.90;;;15.50;73.10;;;;;;5006771;28;20065;-65
2023/08/07 00:33:27;;;;;;;12.60;3.70;;;15.50;73.30;;;;;;5005014;28;20058;-58
2023/08/07 00:35:55;;;;;;;14.30;3.50;;;15.50;73.30;;;;;;5005609;28;20053;-54
2023/08/07 00:38:22;;;;;;;17.30;3.90;;;15.50;73.30;;;;;;5004683;28;20065;-57
2023/08/07 00:40:49;;;;;;;12.98;3.08;;;15.50;73.40;;;;;;5005049;28;20577;-59
2023/08/07 00:43:16;;;;;;;15.77;3.22;;;15.60;73.30;;;;;;5003436;28;20553;-43
2023/08/07 00:45:45;;;;;;;7.13;2.63;;;15.50;72.90;;;;;;5006019;28;20127;-56
2023/08/07 00:48:16;;;;;;;13.80;3.03;;;15.50;73.00;;;;;;5004582;28;20054;-47
2023/08/07 00:50:46;;;;;;;12.68;2.83;;;15.60;73.20;;;;;;5005358;28;20494;-47
2023/08/07 00:53:14;;;;;;;10.73;2.53;;;15.50;73.30;;;;;;5005167;28;20053;-57
2023/08/07 00:55:42;;;;;;;17.13;3.03;;;15.50;73.20;;;;;;5005467;28;20044;-58
2023/08/07 00:58:09;;;;;;;15.05;3.63;;;15.50;73.40;;;;;;5004018;28;20410;-62
2023/08/07 01:00:37;;;;;;;15.13;3.33;;;15.50;73.50;;;;;;5005067;28;20159;-63
2023/08/07 01:03:29;;;;;;;15.82;3.80;;;15.50;73.40;;;;;;5025943;22;20680;-90
2023/08/07 01:05:59;;;;;;;12.85;2.92;;;15.50;73.40;;;;;;5054765;28;20067;-93
2023/08/07 01:08:28;;;;;;;16.77;3.67;;;15.50;73.60;;;;;;5051299;28;20067;-93
2023/08/07 01:11:23;;;;;;;15.00;2.85;;;15.40;73.50;;;;;;5050385;28;20616;-89
2023/08/07 01:14:01;;;;;;;11.70;2.80;;;15.40;74.30;;;;;;5053774;28;20427;-93
2023/08/07 01:16:43;;;;;;;16.98;3.60;;;15.50;73.50;;;;;;5055099;28;20060;-90
2023/08/07 01:19:24;;;;;;;14.35;3.67;;;15.50;73.50;;;;;;5062647;22;20068;-93
2023/08/07 01:22:08;;;;;;;16.02;2.95;;;15.50;73.30;;;;;;5049660;28;20495;-91
2023/08/07 01:24:36;;;;;;;9.88;3.20;;;15.50;73.30;;;;;;5056926;28;20061;-92
2023/08/07 01:27:14;;;;;;;13.70;3.60;;;15.50;73.30;;;;;;5054019;28;20407;-91
2023/08/07 01:29:53;;;;;;;10.82;3.05;;;15.50;73.40;;;;;;5056136;28;20056;-90
2023/08/07 01:32:27;;;;;;;20.08;3.83;;;15.40;73.30;;;;;;5054044;28;20049;-92
2023/08/07 01:34:59;;;;;;;14.10;3.30;;;15.40;73.40;;;;;;5052292;28;20064;-93
2023/08/07 01:37:31;;;;;;;18.75;3.35;;;15.40;73.40;;;;;;5054035;28;20407;-90
2023/08/07 01:40:05;;;;;;;14.23;3.42;;;15.40;73.60;;;;;;5055170;28;20494;-93
2023/08/07 01:42:33;;;;;;;13.45;3.35;;;15.40;73.80;;;;;;5059905;28;20431;-92
2023/08/07 01:45:01;;;;;;;8.52;2.92;;;15.40;73.60;;;;;;5055467;28;20055;-93
2023/08/07 01:47:29;;;;;;;14.00;3.80;;;15.40;73.50;;;;;;5053965;28;20064;-90
2023/08/07 01:49:56;;;;;;;19.10;3.50;;;15.40;73.30;;;;;;5052935;28;20435;-92
2023/08/07 01:52:27;;;;;;;13.68;3.53;;;15.40;73.00;;;;;;5049890;28;20056;-92
2023/08/07 01:54:56;;;;;;;12.55;3.05;;;15.40;72.90;;;;;;5053676;28;20692;-92
2023/08/07 01:57:24;;;;;;;12.27;4.20;;;15.40;73.00;;;;;;5051602;28;20407;-92
2023/08/07 01:59:51;;;;;;;13.63;3.25;;;15.40;73.00;;;;;;5055187;28;20060;-91
2023/08/07 02:02:18;;;;;;;15.93;3.33;;;15.40;72.80;;;;;;5049893;28;20044;-91
2023/08/07 02:04:46;;;;;;;10.27;3.03;;;15.50;73.50;;;;;;5021239;28;20497;-90
2023/08/07 02:07:13;;;;;;;18.52;3.15;;;15.40;72.80;;;;;;5017876;28;20045;-90
2023/08/07 02:09:41;;;;;;;12.73;3.10;;;15.50;73.10;;;;;;5017033;28;20073;-88
2023/08/07 02:12:10;;;;;;;14.35;3.15;;;15.50;73.20;;;;;;5017964;28;20173;-89
2023/08/07 02:14:37;;;;;;;15.45;3.42;;;15.40;72.90;;;;;;5018091;28;20053;-89
2023/08/07 02:17:05;;;;;;;14.25;3.15;;;15.40;73.00;;;;;;5016123;28;20480;-89
2023/08/07 02:19:36;;;;;;;14.60;3.67;;;15.40;73.20;;;;;;5018341;28;20450;-95
2023/08/07 02:22:04;;;;;;;17.52;3.97;;;15.40;73.00;;;;;;5020123;28;20049;-90
2023/08/07 02:24:44;;;;;;;9.27;3.05;;;15.40;73.10;;;;;;5017930;28;20064;-91
2023/08/07 02:27:15;;;;;;;12.50;3.78;;;15.40;72.90;;;;;;5015925;28;20492;-88
2023/08/07 02:29:47;;;;;;;19.50;3.67;;;15.40;73.00;;;;;;5017751;28;20176;-93
2023/08/07 02:32:18;;;;;;;15.35;4.03;;;15.30;72.60;;;;;;5015277;28;20049;-92
2023/08/07 02:34:46;;;;;;;13.02;3.22;;;15.30;72.80;;;;;;5019542;28;20083;-88
2023/08/07 02:37:14;;;;;;;12.82;3.35;;;15.30;73.00;;;;;;5019420;28;20045;-89
2023/08/07 02:39:42;;;;;;;14.35;4.28;;;15.30;73.30;;;;;;5017215;28;20056;-90
2023/08/07 02:42:17;;;;;;;15.65;3.67;;;15.30;73.30;;;;;;5017973;28;20096;-90
2023/08/07 02:44:48;;;;;;;15.15;3.15;;;15.20;73.50;;;;;;5021196;28;20060;-91
2023/08/07 02:47:15;;;;;;;11.30;3.35;;;15.20;73.70;;;;;;5019556;28;20052;-92
2023/08/07 02:49:43;;;;;;;11.50;3.42;;;15.20;74.00;;;;;;5017608;28;20530;-91
2023/08/07 02:52:10;;;;;;;16.90;3.83;;;15.30;74.10;;;;;;5017649;28;20084;-90
2023/08/07 02:54:38;;;;;;;8.77;3.10;;;15.30;74.10;;;;;;5018443;28;20058;-90
2023/08/07 02:57:06;;;;;;;12.65;3.28;;;15.30;74.20;;;;;;5016727;28;20493;-90
2023/08/07 02:59:34;;;;;;;16.45;4.13;;;15.30;73.90;;;;;;5022521;28;20049;-91
2023/08/07 03:02:02;;;;;;;10.07;3.20;;;15.30;73.60;;;;;;5021225;28;20184;-93
2023/08/07 03:04:48;;;;;;;11.85;3.22;;;15.30;73.70;;;;;;5023116;28;20114;-91
2023/08/07 03:07:16;;;;;;;13.30;3.00;;;15.30;73.60;;;;;;5023222;28;20056;-91
2023/08/07 03:09:47;;;;;;;11.98;3.45;;;15.30;73.50;;;;;;5019700;28;20049;-91
2023/08/07 03:12:15;;;;;;;18.98;4.47;;;15.20;73.30;;;;;;5022013;28;20056;-90
2023/08/07 03:14:57;;;;;;;15.75;3.63;;;15.20;73.40;;;;;;5037634;22;20075;-90
2023/08/07 03:17:24;;;;;;;20.88;3.90;;;15.20;73.40;;;;;;5164143;22;20052;-89
2023/08/07 03:23:03;;;;;;;16.08;3.20;;;15.20;73.70;;;;;;5037781;28;20053;-92
2023/08/07 03:25:39;;;;;;;15.32;3.47;;;15.20;73.80;;;;;;5045577;28;20584;-90
2023/08/07 03:28:11;;;;;;;19.35;3.55;;;15.20;74.20;;;;;;5044112;28;20347;-91
2023/08/07 03:30:49;;;;;;;11.80;4.28;;;15.20;74.10;;;;;;5047759;28;20056;-92
2023/08/07 03:33:23;;;;;;;17.35;3.72;;;15.20;74.30;;;;;;5048407;28;20048;-90
2023/08/07 03:35:51;;;;;;;13.23;3.40;;;15.20;74.30;;;;;;5044840;28;20049;-91
2023/08/07 03:38:26;;;;;;;13.32;3.67;;;15.20;74.40;;;;;;5046337;28;20069;-92
2023/08/07 03:41:01;;;;;;;12.60;3.45;;;15.10;74.30;;;;;;5053815;28;20053;-93
2023/08/07 03:43:34;;;;;;;14.05;2.88;;;15.10;74.50;;;;;;5050419;28;20056;-92
2023/08/07 03:46:21;;;;;;;17.33;3.30;;;15.10;74.60;;;;;;5055263;28;20048;-92
2023/08/07 03:48:50;;;;;;;14.20;3.40;;;15.10;74.90;;;;;;5048595;28;20260;-94
2023/08/07 03:51:33;;;;;;;16.80;3.28;;;15.10;74.70;;;;;;5048939;28;20383;-93
2023/08/07 03:54:01;;;;;;;11.50;3.57;;;15.10;74.80;;;;;;5046670;28;20377;-93
2023/08/07 03:59:26;;;;;;;11.52;3.55;;;15.10;74.80;;;;;;5006563;28;20057;-54
2023/08/07 04:01:55;;;;;;;17.60;3.90;;;15.10;74.90;;;;;;5006110;28;20535;-58
2023/08/07 04:04:22;;;;;;;14.43;3.60;;;15.00;75.10;;;;;;5004214;28;20501;-60
2023/08/07 04:06:49;;;;;;;15.10;3.70;;;15.10;75.30;;;;;;5006178;28;20057;-59
2023/08/07 04:09:17;;;;;;;15.32;3.55;;;15.10;75.20;;;;;;5005318;28;20501;-62
2023/08/07 04:11:44;;;;;;;10.93;3.65;;;15.00;75.10;;;;;;5004785;28;20053;-60
2023/08/07 04:14:11;;;;;;;12.85;3.33;;;15.00;75.20;;;;;;5004883;28;20508;-51
2023/08/07 04:16:39;;;;;;;14.07;3.67;;;15.00;75.60;;;;;;5003615;28;20053;-60
2023/08/07 04:19:08;;;;;;;11.02;3.10;;;15.00;75.60;;;;;;5004676;28;20121;-60
2023/08/07 04:21:35;;;;;;;18.98;3.75;;;15.00;75.50;;;;;;5005294;28;20053;-55
2023/08/07 04:24:07;;;;;;;12.75;3.20;;;15.00;75.50;;;;;;5005661;28;20478;-57
2023/08/07 04:26:35;;;;;;;9.85;3.40;;;15.00;75.50;;;;;;5005141;28;20057;-62
2023/08/07 04:29:02;;;;;;;13.25;3.65;;;15.00;75.60;;;;;;5005318;28;20068;-63
2023/08/07 04:31:30;;;;;;;9.93;3.45;;;15.00;75.60;;;;;;5004551;28;20500;-67
2023/08/07 04:33:58;;;;;;;13.38;3.13;;;15.00;75.60;;;;;;5006699;28;20053;-63
2023/08/07 04:36:27;;;;;;;11.65;3.10;;;14.90;75.70;;;;;;5005534;28;20057;-67
2023/08/07 04:38:55;;;;;;;9.70;3.20;;;14.90;75.90;;;;;;5004750;28;20053;-63
2023/08/07 04:41:23;;;;;;;11.70;3.03;;;14.90;76.00;;;;;;5005270;28;20409;-64
2023/08/07 04:43:50;;;;;;;13.80;3.50;;;14.90;76.20;;;;;;5006343;28;20050;-59
2023/08/07 04:46:17;;;;;;;9.93;2.90;;;14.90;76.30;;;;;;5004663;28;20068;-66
2023/08/07 04:48:44;;;;;;;10.95;3.10;;;14.90;76.60;;;;;;5005397;28;20053;-67
2023/08/07 04:51:11;;;;;;;6.57;2.88;;;14.90;76.60;;;;;;5004831;28;20112;-60
2023/08/07 04:53:40;;;;;;;11.27;3.40;;;14.90;76.60;;;;;;5004007;28;20054;-68
2023/08/07 04:56:07;;;;;;;16.75;4.10;;;14.90;76.70;;;;;;5003478;28;20054;-61
2023/08/07 04:58:34;;;;;;;9.27;3.65;;;14.90;76.90;;;;;;5017172;28;20069;-60
2023/08/07 05:01:02;;;;;;;7.80;3.60;;;14.90;77.00;;;;;;5025941;28;20050;-69
2023/08/07 05:03:30;;;;;;;14.77;3.75;;;14.90;76.90;;;;;;5024894;28;20045;-63
2023/08/07 05:06:01;;;;;;;11.48;3.72;;;14.90;77.00;;;;;;5024592;28;20057;-67
2023/08/07 05:08:28;;;;;;;11.93;3.63;;;14.90;76.90;;;;;;5023589;28;20493;-69
2023/08/07 05:10:57;;;;;;;16.67;4.20;;;14.90;76.90;;;;;;5024097;28;20493;-54
2023/08/07 05:13:24;;;;;;;13.40;4.05;;;14.90;76.90;;;;;;5023477;28;20064;-61
2023/08/07 05:15:51;;;;;;;8.27;3.35;;;14.90;76.90;;;;;;5024804;28;20072;-58
2023/08/07 05:18:19;;;;;;;12.30;3.88;;;14.90;77.10;;;;;;5025566;28;20049;-60
2023/08/07 05:20:46;;;;;;;12.93;3.38;;;14.90;77.10;;;;;;5023913;28;20489;-60
2023/08/07 05:23:14;;;;;;;12.52;3.75;;;14.90;77.10;;;;;;5024387;28;20489;-61
2023/08/07 05:25:42;;;;;;;22.10;3.80;;;14.90;77.20;;;;;;5024239;28;20057;-61
2023/08/07 05:28:11;;;;;;;19.77;4.35;;;14.90;77.00;;;;;;5022683;28;20061;-59
2023/08/07 05:30:39;;;;;;;12.60;3.72;;;14.90;76.90;;;;;;5023744;28;20064;-55
2023/08/07 05:33:08;;;;;;;12.38;3.83;;;14.90;77.00;;;;;;5023995;28;20045;-59
2023/08/07 05:35:38;;;;;;;11.65;3.50;;;14.90;77.00;;;;;;5025440;28;20057;-60
2023/08/07 05:38:06;;;;;;;12.52;3.42;;;14.90;77.10;;;;;;5023267;28;20057;-61
2023/08/07 05:40:36;;;;;;;10.80;3.58;;;14.90;76.90;;;;;;5024713;28;20057;-59
2023/08/07 05:43:03;;;;;;;12.60;3.58;;;14.90;76.70;;;;;;5022233;28;20528;-57
2023/08/07 05:45:33;;;;;;;16.30;3.78;;;14.90;76.90;;;;;;5024882;28;20413;-57
2023/08/07 05:48:00;;;;;;;9.35;3.20;;;14.90;76.60;;;;;;5023392;28;20049;-58
2023/08/07 05:50:28;;;;;;;11.30;3.72;;;15.00;76.60;;;;;;5024227;28;20057;-56
2023/08/07 05:52:55;;;;;;;13.40;3.60;;;15.00;76.20;;;;;;5025002;28;20049;-67
2023/08/07 05:55:22;;;;;;;13.20;3.47;;;15.00;76.20;;;;;;5023392;28;20386;-63
2023/08/07 05:57:49;;;;;;;8.20;3.30;;;15.00;76.20;;;;;;5021683;28;20425;-60
2023/08/07 06:00:19;;;;;;;12.70;4.00;;;15.00;76.00;;;;;;5022028;28;20056;-59
2023/08/07 06:02:48;;;;;;;10.85;2.72;;;15.00;75.80;;;;;;5023309;28;20057;-57
2023/08/07 06:05:16;;;;;;;10.73;2.95;;;15.00;75.80;;;;;;5023413;28;20060;-58
2023/08/07 06:07:43;;;;;;;13.93;3.60;;;15.10;76.00;;;;;;5023573;28;20374;-61
2023/08/07 06:10:10;;;;;;;10.68;2.72;;;15.10;75.80;;;;;;5024783;28;20045;-59
2023/08/07 06:12:38;;;;;;;10.77;3.38;;;15.10;75.80;;;;;;5017339;28;20064;-53
2023/08/07 06:15:06;;;;;;;8.35;3.33;;;15.20;75.70;;;;;;5003864;28;20046;-58
2023/08/07 06:17:33;;;;;;;12.18;3.70;;;15.20;75.50;;;;;;5004108;28;20054;-60
2023/08/07 06:20:04;;;;;;;14.27;3.80;;;15.20;75.40;;;;;;5004005;28;20490;-58
2023/08/07 06:22:32;;;;;;;15.90;4.32;;;15.20;74.80;;;;;;4996308;28;20512;-58
2023/08/07 06:24:59;;;;;;;8.85;3.17;;;15.30;74.80;;;;;;5006552;28;20050;-62
2023/08/07 06:27:27;;;;;;;17.10;3.97;;;15.30;74.60;;;;;;5004020;28;20064;-59
2023/08/07 06:29:55;;;;;;;16.92;3.92;;;15.30;73.90;;;;;;5004338;28;20055;-60
2023/08/07 06:32:22;;;;;;;15.25;3.40;;;15.30;73.60;;;;;;5006790;28;20061;-58
2023/08/07 06:34:50;;;;;;;14.35;3.22;;;15.40;73.30;;;;;;5006394;28;20057;-58
2023/08/07 06:37:18;;;;;;;16.30;3.67;;;15.40;73.10;;;;;;5007629;28;20072;-58
2023/08/07 06:39:46;;;;;;;18.70;3.55;;;15.40;73.00;;;;;;5008185;28;20058;-60
2023/08/07 06:42:13;;;;;;;11.90;3.40;;;15.40;72.90;;;;;;5006155;28;20050;-66
2023/08/07 06:44:41;;;;;;;12.48;3.10;;;15.30;72.50;;;;;;5008033;28;20053;-59
2023/08/07 06:47:08;;;;;;;11.75;3.45;;;15.40;72.30;;;;;;5007647;28;20362;-64
2023/08/07 06:49:36;;;;;;;10.88;3.10;;;15.40;72.30;;;;;;5007550;28;20050;-54
2023/08/07 06:52:03;;;;;;;17.00;3.47;;;15.40;72.30;;;;;;5006801;28;20482;-57
2023/08/07 06:54:32;;;;;;;14.70;3.35;;;15.40;72.50;;;;;;5007926;28;20065;-57
2023/08/07 06:56:59;;;;;;;10.82;3.13;;;15.30;72.60;;;;;;5005820;28;20054;-62
2023/08/07 06:59:26;;;;;;;13.38;3.33;;;15.30;72.10;;;;;;5008204;28;20050;-54
2023/08/07 07:01:54;;;;;;;11.30;3.17;;;15.30;73.00;;;;;;5008629;28;20050;-63
2023/08/07 07:04:21;;;;;;;14.45;3.17;;;15.30;72.50;;;;;;5007577;28;20050;-55
2023/08/07 07:06:48;;;;;;;8.88;3.30;;;15.30;72.60;;;;;;5006484;28;20061;-58
2023/08/07 07:09:16;;;;;;;11.77;3.03;;;15.30;72.80;;;;;;5007167;28;20398;-63
2023/08/07 07:11:45;;;;;;;9.77;2.58;;;15.30;73.00;;;;;;5006452;28;20061;-64
2023/08/07 07:14:12;;;;;;;13.57;3.60;;;15.30;73.30;;;;;;5006372;28;20068;-67
2023/08/07 07:16:39;;;;;;;15.77;3.38;;;15.30;73.30;;;;;;5007660;28;20045;-54
2023/08/07 07:19:09;;;;;;;9.98;3.22;;;15.30;73.40;;;;;;5006932;28;20058;-62
2023/08/07 07:21:37;;;;;;;10.38;3.25;;;15.20;73.50;;;;;;5006901;28;20069;-67
2023/08/07 07:24:04;;;;;;;7.88;2.90;;;15.20;73.50;;;;;;5005633;28;20054;-63
2023/08/07 07:26:32;;;;;;;10.15;3.05;;;15.20;73.90;;;;;;5006360;28;20050;-60
2023/08/07 07:29:00;;;;;;;15.30;3.78;;;15.20;74.00;;;;;;5006383;28;20414;-64
2023/08/07 07:31:27;;;;;;;9.30;3.10;;;15.20;74.20;;;;;;5007277;28;20064;-65
2023/08/07 07:33:55;;;;;;;9.93;3.28;;;15.20;74.50;;;;;;5008158;28;20057;-63
2023/08/07 07:36:22;;;;;;;14.60;4.43;;;15.20;74.70;;;;;;5008456;28;20429;-57
2023/08/07 07:38:49;;;;;;;9.77;3.22;;;15.10;74.50;;;;;;5006273;28;20049;-63
2023/08/07 07:41:17;;;;;;;7.43;3.00;;;15.10;75.50;;;;;;5005481;28;20516;-62
2023/08/07 07:43:44;;;;;;;11.10;3.15;;;15.10;75.10;;;;;;5005338;28;20383;-67
2023/08/07 07:46:13;;;;;;;7.78;3.88;;;15.10;75.20;;;;;;5006526;28;20054;-64
2023/08/07 07:48:40;;;;;;;10.27;3.35;;;15.00;75.30;;;;;;5006815;28;20061;-70
2023/08/07 07:51:07;;;;;;;10.23;3.17;;;15.00;75.50;;;;;;5006177;28;20057;-67
2023/08/07 07:53:34;;;;;;;8.52;3.20;;;15.10;75.90;;;;;;5006030;28;20057;-72
2023/08/07 07:56:02;;;;;;;8.65;3.15;;;15.00;76.10;;;;;;5007228;28;20478;-60
2023/08/07 07:58:29;;;;;;;9.38;2.72;;;15.00;76.10;;;;;;5005064;28;20065;-61
2023/08/07 08:00:56;;;;;;;9.57;3.08;;;15.00;76.20;;;;;;5006221;28;20060;-57
2023/08/07 08:03:25;;;;;;;8.90;3.08;;;15.00;76.20;;;;;;5006404;28;20069;-56
2023/08/07 08:05:53;;;;;;;11.65;3.40;;;15.00;76.50;;;;;;5005762;28;20045;-74
2023/08/07 08:08:20;;;;;;;8.85;2.80;;;15.00;76.30;;;;;;5007470;28;20865;-61
2023/08/07 08:10:47;;;;;;;10.30;3.53;;;15.00;76.40;;;;;;5005827;28;20081;-66
2023/08/07 08:13:15;;;;;;;14.50;3.13;;;15.00;76.50;;;;;;5005077;28;20054;-70
2023/08/07 08:15:42;;;;;;;10.45;3.05;;;15.00;76.70;;;;;;5005709;28;20080;-61
2023/08/07 08:18:10;;;;;;;10.90;4.20;;;15.00;76.80;;;;;;5004954;28;20631;-66
2023/08/07 08:20:39;;;;;;;20.45;4.20;;;15.00;77.20;;;;;;5007032;28;20501;-66
2023/08/07 08:23:06;;;;;;;13.35;3.53;;;15.00;77.60;;;;;;5005804;28;20061;-72
2023/08/07 08:25:33;;;;;;;10.88;3.20;;;15.00;77.70;;;;;;5007445;28;20065;-53
2023/08/07 08:28:01;;;;;;;25.00;4.82;;;15.00;77.90;;;;;;5004094;28;20050;-65
2023/08/07 08:30:29;;;;;;;14.18;3.45;;;15.00;78.00;;;;;;5005471;28;20058;-62
2023/08/07 08:32:57;;;;;;;12.85;3.58;;;15.00;77.90;;;;;;5006073;28;20064;-66
2023/08/07 08:35:25;;;;;;;16.33;3.80;;;15.00;78.10;;;;;;5005641;28;20062;-67
2023/08/07 08:37:54;;;;;;;18.05;4.03;;;15.10;77.80;;;;;;5004821;28;20061;-70
2023/08/07 08:40:21;;;;;;;9.23;3.25;;;15.10;77.90;;;;;;5005476;28;20424;-68
2023/08/07 08:42:50;;;;;;;11.20;3.53;;;15.10;78.00;;;;;;5005441;28;20054;-67
2023/08/07 08:45:20;;;;;;;15.20;3.28;;;15.10;78.00;;;;;;5006957;28;20049;-68
2023/08/07 08:47:51;;;;;;;16.60;3.75;;;15.10;77.60;;;;;;5004658;28;20057;-60
2023/08/07 08:50:19;;;;;;;11.38;3.72;;;15.10;77.80;;;;;;5005503;28;20088;-66
2023/08/07 08:52:46;;;;;;;13.20;3.28;;;15.20;77.90;;;;;;5005000;28;20050;-59
2023/08/07 08:55:15;;;;;;;12.90;3.35;;;15.20;77.80;;;;;;5004737;28;20522;-57
2023/08/07 08:57:44;;;;;;;14.63;3.15;;;15.20;78.20;;;;;;5005752;28;20054;-70
2023/08/07 09:00:17;;;;;;;9.90;3.47;;;15.20;78.00;;;;;;5005565;28;20053;-63
2023/08/07 09:02:45;;;;;;;9.38;3.13;;;15.20;77.80;;;;;;5004659;28;20425;-62
2023/08/07 09:05:13;;;;;;;12.48;3.13;;;15.30;78.00;;;;;;5004485;28;20068;-61
2023/08/07 09:07:40;;;;;;;11.13;3.13;;;15.30;78.00;;;;;;5004192;28;20391;-63
2023/08/07 09:10:11;;;;;;;14.50;3.70;;;15.30;78.00;;;;;;5004534;28;20064;-66
2023/08/07 09:12:43;;;;;;;10.68;3.42;;;15.30;78.10;;;;;;5003191;28;20049;-57
2023/08/07 09:15:13;;;;;;;13.35;3.85;;;15.30;77.20;;;;;;5004747;28;20060;-66
2023/08/07 09:17:41;;;;;;;14.00;4.03;;;15.40;77.30;;;;;;5005489;28;20050;-68
2023/08/07 09:20:11;;;;;;;11.63;3.15;;;15.40;77.20;;;;;;5005137;28;20057;-60
2023/08/07 09:22:39;;;;;;;12.93;3.50;;;15.30;77.30;;;;;;5004010;28;20045;-73
2023/08/07 09:25:09;;;;;;;10.63;3.47;;;15.40;77.70;;;;;;5004447;28;20050;-59
2023/08/07 09:27:39;;;;;;;10.77;3.42;;;15.40;77.90;;;;;;5002878;28;20409;-67
2023/08/07 09:30:09;;;;;;;13.30;3.70;;;15.40;78.00;;;;;;5003651;28;20076;-59
2023/08/07 09:32:38;;;;;;;14.85;3.45;;;15.50;78.00;;;;;;5005923;28;20062;-59
2023/08/07 09:35:08;;;;;;;8.60;3.15;;;15.50;78.30;;;;;;5004564;28;20537;-62
2023/08/07 09:37:38;;;;;;;16.83;3.13;;;15.50;78.30;;;;;;5003507;28;20050;-57
2023/08/07 09:40:10;;;;;;;7.55;3.03;;;15.50;78.40;;;;;;5004448;28;20061;-59
2023/08/07 09:42:38;;;;;;;18.40;4.00;;;15.60;78.70;;;;;;5002500;28;20050;-63
2023/08/07 09:45:20;;;;;;;16.70;3.70;;;15.60;78.40;;;;;;5003963;28;20054;-63
2023/08/07 09:47:48;;;;;;;9.10;2.63;;;15.60;78.00;;;;;;5004400;28;20497;-63
2023/08/07 09:50:17;;;;;;;9.15;3.40;;;15.70;78.20;;;;;;5003153;28;20686;-58
2023/08/07 09:52:48;;;;;;;9.90;3.28;;;15.70;77.90;;;;;;5004328;28;20061;-58
2023/08/07 09:55:15;;;;;;;9.75;3.30;;;15.70;78.00;;;;;;5003519;28;20057;-70
2023/08/07 09:57:45;;;;;;;11.15;3.15;;;15.80;77.50;;;;;;5001972;28;20064;-60
2023/08/07 10:00:14;;;;;;;16.65;3.20;;;15.80;77.30;;;;;;5004045;28;20494;-67
2023/08/07 10:02:42;;;;;;;12.30;3.35;;;15.80;77.00;;;;;;5004268;28;20061;-65
2023/08/07 10:05:11;;;;;;;15.20;3.20;;;15.80;76.90;;;;;;5003581;28;20435;-62
2023/08/07 10:07:39;;;;;;;10.93;3.05;;;15.90;76.30;;;;;;5003603;28;20064;-55
2023/08/07 10:10:07;;;;;;;9.13;3.10;;;15.90;76.20;;;;;;5002983;28;20481;-65
2023/08/07 10:12:36;;;;;;;7.57;2.42;;;15.90;75.90;;;;;;5001969;28;20576;-68
2023/08/07 10:15:05;;;;;;;10.45;2.50;;;15.90;75.90;;;;;;5004649;28;20049;-56
2023/08/07 10:17:35;;;;;;;5.18;2.25;;;16.00;75.10;;;;;;4984101;28;20856;-64
2023/08/07 10:20:04;;;;;;;9.05;2.55;;;16.00;75.30;;;;;;4983846;28;20057;-59
2023/08/07 10:22:33;;;;;;;10.88;3.58;;;16.00;75.50;;;;;;4984968;28;20434;-64
2023/08/07 10:25:02;;;;;;;11.88;3.15;;;16.10;75.90;;;;;;4984055;28;20054;-63
2023/08/07 10:27:33;;;;;;;9.15;3.97;;;16.10;75.30;;;;;;4983498;28;20058;-65
2023/08/07 10:30:03;;;;;;;14.25;3.35;;;16.20;75.70;;;;;;4982155;28;20428;-65
2023/08/07 10:32:33;;;;;;;9.93;2.80;;;16.20;75.80;;;;;;4989850;28;20057;-62
2023/08/07 10:35:05;;;;;;;8.05;2.35;;;16.30;75.30;;;;;;4984219;28;20395;-68
2023/08/07 10:37:40;;;;;;;10.35;2.80;;;16.40;74.60;;;;;;4984114;28;20054;-69
2023/08/07 10:40:10;;;;;;;8.98;2.85;;;16.40;73.80;;;;;;4983807;28;20050;-59
2023/08/07 10:42:56;;;;;;;8.95;2.67;;;16.40;72.90;;;;;;4983126;28;20073;-63
2023/08/07 10:45:24;;;;;;;9.70;3.20;;;16.50;72.90;;;;;;4984285;28;20073;-63
2023/08/07 10:48:09;;;;;;;8.10;2.85;;;16.50;72.60;;;;;;4983236;28;20062;-64
2023/08/07 10:50:49;;;;;;;8.45;3.22;;;16.60;72.50;;;;;;4984095;28;20926;-60
2023/08/07 10:53:20;;;;;;;9.38;2.53;;;16.60;72.70;;;;;;4983457;28;20058;-65
2023/08/07 10:55:48;;;;;;;11.48;2.67;;;16.70;73.10;;;;;;4983170;28;20058;-59
2023/08/07 10:58:26;;;;;;;10.35;2.53;;;16.80;73.00;;;;;;4983262;28;20058;-58
2023/08/07 11:01:08;;;;;;;7.13;2.92;;;16.80;72.80;;;;;;4982202;28;20054;-59
2023/08/07 11:03:37;;;;;;;10.35;2.55;;;16.90;73.70;;;;;;4983223;28;20497;-57
2023/08/07 11:06:05;;;;;;;7.93;2.10;;;17.10;74.00;;;;;;4982871;28;20050;-60
2023/08/07 11:08:32;;;;;;;8.88;2.80;;;17.10;73.30;;;;;;4983790;28;20289;-59
2023/08/07 11:11:06;;;;;;;6.85;2.35;;;17.20;71.40;;;;;;4982964;28;20054;-60
2023/08/07 11:13:33;;;;;;;10.63;2.70;;;17.30;71.00;;;;;;4982951;28;20050;-68
2023/08/07 11:16:02;;;;;;;12.90;3.22;;;17.40;69.30;;;;;;4984133;28;20058;-61
2023/08/07 11:18:31;;;;;;;9.00;2.60;;;17.40;67.90;;;;;;4984514;28;20061;-62
2023/08/07 11:21:01;;;;;;;7.40;2.58;;;17.50;68.40;;;;;;4987315;28;20050;-63
2023/08/07 11:23:29;;;;;;;6.30;2.50;;;17.60;68.40;;;;;;4987297;28;20054;-64
2023/08/07 11:25:56;;;;;;;11.35;2.55;;;17.70;67.90;;;;;;4987208;28;20058;-66
2023/08/07 11:28:24;;;;;;;10.48;2.83;;;17.70;66.80;;;;;;4986724;28;20058;-64
2023/08/07 11:30:55;;;;;;;10.10;2.85;;;17.80;66.90;;;;;;4986343;28;20065;-65
2023/08/07 11:33:23;;;;;;;8.70;2.60;;;17.90;66.90;;;;;;4987538;28;20060;-63
2023/08/07 11:35:50;;;;;;;8.30;2.40;;;17.90;67.70;;;;;;4986155;28;20054;-63
2023/08/07 11:38:32;;;;;;;9.18;3.10;;;18.00;67.00;;;;;;4991993;28;20054;-54
2023/08/07 11:41:00;;;;;;;9.85;2.47;;;18.00;65.30;;;;;;4986794;28;20134;-62
2023/08/07 11:43:29;;;;;;;9.63;2.88;;;18.10;63.80;;;;;;4986851;28;20446;-68
2023/08/07 11:45:57;;;;;;;7.90;2.55;;;18.10;62.90;;;;;;4987441;28;20524;-72
2023/08/07 11:48:26;;;;;;;6.95;2.35;;;18.20;61.50;;;;;;4986844;28;20793;-57
2023/08/07 11:50:54;;;;;;;6.97;3.05;;;18.20;61.90;;;;;;4987398;28;20109;-63
2023/08/07 11:53:21;;;;;;;10.20;3.10;;;18.30;61.90;;;;;;4986379;28;20046;-56
2023/08/07 11:55:56;;;;;;;5.60;2.13;;;18.30;61.50;;;;;;4986647;28;20069;-58
2023/08/07 11:58:23;;;;;;;;;;;18.40;60.60;;;;;;4984717;28;20055;-62
2023/08/07 12:00:50;;;;;;;13.52;2.67;;;18.40;61.60;;;;;;4985854;28;19922;-59
2023/08/07 12:03:28;;;;;;;9.82;3.50;;;18.50;61.10;;;;;;4985848;28;20046;-67
2023/08/07 12:05:57;;;;;;;9.90;2.97;;;18.50;59.50;;;;;;4986591;28;20422;-64
2023/08/07 12:08:25;;;;;;;13.93;3.00;;;18.50;58.40;;;;;;4986601;28;20050;-57
2023/08/07 12:10:54;;;;;;;7.95;2.33;;;18.50;58.20;;;;;;4986425;28;20054;-67
2023/08/07 12:13:24;;;;;;;8.05;2.42;;;18.60;58.80;;;;;;4987030;28;20054;-59
2023/08/07 12:15:53;;;;;;;6.47;2.10;;;18.60;59.90;;;;;;4986493;28;20055;-60
2023/08/07 12:18:22;;;;;;;7.15;2.35;;;18.70;60.00;;;;;;4986876;28;20042;-64
2023/08/07 12:20:50;;;;;;;7.53;2.40;;;18.70;58.70;;;;;;4986234;28;20065;-58
2023/08/07 12:23:18;;;;;;;7.32;2.40;;;18.80;58.10;;;;;;4985958;28;20653;-66
2023/08/07 12:25:46;;;;;;;8.20;2.78;;;18.80;58.10;;;;;;4986097;28;20058;-55
2023/08/07 12:28:16;;;;;;;12.80;3.45;;;18.90;57.40;;;;;;4984244;28;20058;-61
2023/08/07 12:30:46;;;;;;;4.93;2.35;;;18.90;56.60;;;;;;4985174;28;20054;-51
2023/08/07 12:33:14;;;;;;;10.10;2.65;;;19.00;57.60;;;;;;4985526;28;20050;-68
2023/08/07 12:35:41;;;;;;;6.15;2.75;;;19.10;57.50;;;;;;4985503;28;20498;-59
2023/08/07 12:38:09;;;;;;;4.88;2.00;;;19.20;57.10;;;;;;4985472;28;20062;-56
2023/08/07 12:40:37;;;;;;;11.75;2.30;;;19.30;56.90;;;;;;4986275;28;20108;-63
2023/08/07 12:43:04;;;;;;;5.03;1.95;;;19.30;52.80;;;;;;4984988;28;20064;-61
2023/08/07 12:45:33;;;;;;;6.35;1.95;;;19.40;53.10;;;;;;4985466;28;20050;-57
2023/08/07 12:48:01;;;;;;;6.22;2.17;;;19.50;53.90;;;;;;4986235;28;20536;-72
2023/08/07 12:50:29;;;;;;;8.70;2.55;;;19.50;53.40;;;;;;4986181;28;20068;-58
2023/08/07 12:52:58;;;;;;;6.28;2.00;;;19.60;53.10;;;;;;4985526;28;20497;-67
2023/08/07 12:55:25;;;;;;;5.95;2.10;;;19.60;52.80;;;;;;4986540;28;20064;-54
2023/08/07 12:57:53;;;;;;;9.88;2.20;;;19.70;50.90;;;;;;4984447;28;20062;-57